createdAt,value
2018-06-06T00:02:25.829Z,9.33
2018-06-06T00:04:54.009Z,9.63
2018-06-06T00:07:22.199Z,9.80
2018-06-06T00:09:50.393Z,10.23
2018-06-06T00:12:18.518Z,9.90
2018-06-06T00:14:46.714Z,8.13
2018-06-06T00:17:14.933Z,8.93
2018-06-06T00:19:43.137Z,8.27
2018-06-06T00:22:11.121Z,9.03
2018-06-06T00:24:39.322Z,8.90
2018-06-06T00:27:07.545Z,9.03
2018-06-06T00:29:35.741Z,9.10
2018-06-06T00:32:03.945Z,8.67
2018-06-06T00:34:32.122Z,8.63
2018-06-06T00:37:01.364Z,9.37
2018-06-06T00:39:29.546Z,9.27
2018-06-06T00:41:57.510Z,9.20
2018-06-06T00:44:25.657Z,8.73
2018-06-06T00:46:53.910Z,9.80
2018-06-06T00:49:22.070Z,9.77
2018-06-06T00:51:50.250Z,9.83
2018-06-06T00:54:18.437Z,8.77
2018-06-06T00:56:46.699Z,10.20
2018-06-06T00:59:14.905Z,9.27
2018-06-06T01:01:43.109Z,9.57
2018-06-06T01:04:11.331Z,10.27
2018-06-06T01:06:39.546Z,9.20
2018-06-06T01:09:09.254Z,10.23
2018-06-06T01:11:37.497Z,10.13
2018-06-06T01:14:05.683Z,10.37
2018-06-06T01:16:33.826Z,9.70
2018-06-06T01:19:02.009Z,9.60
2018-06-06T01:21:30.186Z,9.50
2018-06-06T01:23:58.489Z,10.50
2018-06-06T01:26:26.672Z,8.47
2018-06-06T01:28:54.853Z,9.33
2018-06-06T01:31:23.034Z,9.70
2018-06-06T01:33:51.201Z,9.13
2018-06-06T01:36:19.374Z,9.40
2018-06-06T01:38:47.557Z,9.50
2018-06-06T01:41:15.725Z,9.43
2018-06-06T01:43:43.697Z,8.70
2018-06-06T01:46:11.933Z,8.87
2018-06-06T01:48:40.190Z,10.30
2018-06-06T01:51:08.447Z,9.57
2018-06-06T01:53:36.632Z,8.90
2018-06-06T01:56:04.854Z,10.50
2018-06-06T01:58:33.003Z,10.40
2018-06-06T02:01:01.211Z,9.80
2018-06-06T02:03:29.406Z,9.40
2018-06-06T02:05:57.614Z,9.00
2018-06-06T02:08:25.818Z,8.87
2018-06-06T02:10:53.973Z,9.97
2018-06-06T02:13:22.185Z,9.40
2018-06-06T02:15:50.386Z,10.60
2018-06-06T02:18:18.537Z,8.90
2018-06-06T02:20:46.698Z,9.63
2018-06-06T02:23:14.834Z,8.80
2018-06-06T02:25:42.995Z,9.27
2018-06-06T02:28:11.182Z,10.17
2018-06-06T02:30:39.353Z,9.00
2018-06-06T02:33:07.535Z,8.73
2018-06-06T02:35:35.702Z,9.70
2018-06-06T02:38:03.946Z,8.43
2018-06-06T02:40:32.150Z,9.50
2018-06-06T02:43:00.359Z,10.33
2018-06-06T02:45:28.547Z,9.40
2018-06-06T02:47:56.714Z,9.20
2018-06-06T02:50:24.954Z,9.10
2018-06-06T02:52:53.130Z,8.57
2018-06-06T02:55:21.347Z,9.70
2018-06-06T02:57:49.514Z,8.80
2018-06-06T03:00:17.698Z,9.20
2018-06-06T03:02:45.926Z,9.30
2018-06-06T03:05:14.130Z,8.73
2018-06-06T03:07:42.312Z,8.90
2018-06-06T03:10:10.482Z,8.47
2018-06-06T03:12:38.644Z,9.97
2018-06-06T03:15:06.917Z,7.90
2018-06-06T03:17:35.146Z,10.00
2018-06-06T03:20:03.385Z,9.23
2018-06-06T03:22:31.533Z,8.13
2018-06-06T03:24:59.742Z,8.97
2018-06-06T03:27:27.893Z,8.03
2018-06-06T03:29:56.151Z,8.77
2018-06-06T03:32:24.322Z,8.20
2018-06-06T03:34:52.510Z,8.30
2018-06-06T03:37:20.674Z,8.23
2018-06-06T03:39:48.854Z,8.40
2018-06-06T03:42:17.030Z,8.80
2018-06-06T03:44:45.201Z,8.23
2018-06-06T03:47:13.385Z,8.40
2018-06-06T03:49:41.554Z,8.40
2018-06-06T03:52:09.721Z,7.47
2018-06-06T03:54:37.893Z,8.77
2018-06-06T03:57:06.113Z,8.63
2018-06-06T03:59:34.346Z,8.07
2018-06-06T04:02:02.558Z,7.87
2018-06-06T04:04:30.725Z,8.80
2018-06-06T04:06:58.901Z,8.33
2018-06-06T04:09:27.108Z,7.00
2018-06-06T04:11:55.333Z,7.20
2018-06-06T04:14:23.501Z,8.40
2018-06-06T04:16:51.706Z,8.03
2018-06-06T04:19:19.890Z,7.90
2018-06-06T04:21:48.094Z,7.73
2018-06-06T04:24:16.266Z,9.10
2018-06-06T04:26:44.417Z,7.93
2018-06-06T04:29:12.641Z,8.23
2018-06-06T04:31:40.810Z,8.90
2018-06-06T04:34:09.042Z,7.67
2018-06-06T04:36:37.272Z,7.90
2018-06-06T04:39:08.729Z,7.90
2018-06-06T04:41:37.816Z,7.60
2018-06-06T04:44:05.981Z,9.17
2018-06-06T04:46:34.210Z,9.30
2018-06-06T04:49:02.135Z,8.10
2018-06-06T04:51:30.293Z,7.80
2018-06-06T04:53:58.525Z,8.60
2018-06-06T04:56:26.646Z,7.47
2018-06-06T04:58:54.874Z,7.23
2018-06-06T05:01:23.102Z,8.10
2018-06-06T05:03:51.281Z,7.80
2018-06-06T05:06:19.497Z,7.80
2018-06-06T05:08:47.686Z,7.23
2018-06-06T05:11:15.831Z,7.90
2018-06-06T05:13:44.026Z,7.37
2018-06-06T05:16:12.892Z,8.50
2018-06-06T05:18:41.123Z,7.73
2018-06-06T05:21:09.318Z,8.67
2018-06-06T05:23:37.527Z,7.67
2018-06-06T05:26:06.263Z,7.50
2018-06-06T05:28:34.475Z,8.57
2018-06-06T05:31:02.682Z,8.93
2018-06-06T05:33:30.955Z,7.53
2018-06-06T05:35:59.125Z,8.17
2018-06-06T05:38:27.306Z,8.03
2018-06-06T05:40:55.509Z,8.10
2018-06-06T05:43:23.682Z,7.83
2018-06-06T05:45:51.926Z,8.10
2018-06-06T05:48:20.150Z,7.17
2018-06-06T05:50:48.310Z,7.73
2018-06-06T05:53:16.470Z,8.23
2018-06-06T05:55:44.682Z,7.00
2018-06-06T05:58:12.850Z,6.80
2018-06-06T06:00:41.006Z,7.20
2018-06-06T06:03:09.213Z,7.47
2018-06-06T06:05:37.400Z,7.03
2018-06-06T06:08:05.658Z,7.40
2018-06-06T06:10:33.897Z,7.97
2018-06-06T06:13:02.135Z,8.00
2018-06-06T06:15:30.357Z,8.40
2018-06-06T06:17:58.519Z,8.30
2018-06-06T06:20:26.741Z,8.70
2018-06-06T06:22:54.943Z,7.40
2018-06-06T06:25:23.086Z,8.50
2018-06-06T06:27:51.257Z,7.97
2018-06-06T06:30:19.531Z,7.23
2018-06-06T06:32:47.622Z,6.60
2018-06-06T06:35:15.842Z,7.13
2018-06-06T06:37:44.017Z,7.80
2018-06-06T06:40:12.197Z,6.90
2018-06-06T06:42:40.345Z,7.10
2018-06-06T06:45:08.503Z,7.93
2018-06-06T06:47:36.633Z,7.80
2018-06-06T06:50:05.083Z,7.97
2018-06-06T06:52:33.285Z,8.30
2018-06-06T06:55:01.447Z,8.63
2018-06-06T06:57:29.598Z,8.33
2018-06-06T06:59:57.867Z,7.80
2018-06-06T07:02:26.058Z,7.60
2018-06-06T07:04:54.293Z,7.80
2018-06-06T07:07:22.597Z,7.80
2018-06-06T07:09:50.808Z,8.60
2018-06-06T07:12:18.996Z,8.77
2018-06-06T07:14:47.141Z,8.70
2018-06-06T07:17:15.333Z,7.70
2018-06-06T07:19:43.586Z,9.73
2018-06-06T07:22:11.797Z,8.50
2018-06-06T07:24:39.987Z,9.33
2018-06-06T07:27:08.214Z,8.80
2018-06-06T07:29:36.438Z,7.73
2018-06-06T07:32:04.618Z,9.60
2018-06-06T07:34:32.810Z,10.33
2018-06-06T07:37:01.010Z,9.83
2018-06-06T07:39:29.182Z,8.90
2018-06-06T07:41:57.385Z,8.70
2018-06-06T07:44:25.539Z,8.83
2018-06-06T07:46:53.697Z,9.47
2018-06-06T07:49:21.851Z,8.77
2018-06-06T07:51:50.003Z,10.23
2018-06-06T07:54:18.325Z,8.17
2018-06-06T07:56:46.458Z,9.43
2018-06-06T07:59:14.643Z,8.30
2018-06-06T08:01:42.833Z,8.90
2018-06-06T08:04:11.048Z,9.30
2018-06-06T08:09:13.870Z,9.67
2018-06-06T08:11:41.996Z,9.90
2018-06-06T08:14:10.193Z,10.30
2018-06-06T08:16:38.378Z,11.50
2018-06-06T08:19:06.554Z,9.70
2018-06-06T08:21:34.762Z,9.53
2018-06-06T08:24:02.921Z,10.23
2018-06-06T08:26:31.101Z,9.77
2018-06-06T08:28:59.286Z,10.47
2018-06-06T08:31:27.537Z,10.07
2018-06-06T08:33:55.721Z,8.50
2018-06-06T08:36:23.897Z,9.83
2018-06-06T08:38:52.077Z,9.40
2018-06-06T08:41:20.371Z,10.63
2018-06-06T08:43:48.519Z,10.20
2018-06-06T08:46:16.714Z,13.90
2018-06-06T08:48:44.893Z,12.17
2018-06-06T08:51:13.100Z,9.90
2018-06-06T08:53:41.307Z,11.17
2018-06-06T08:56:09.521Z,10.10
2018-06-06T08:58:37.681Z,9.00
2018-06-06T09:01:05.910Z,11.10
2018-06-06T09:03:34.067Z,10.27
2018-06-06T09:06:02.272Z,9.60
2018-06-06T09:08:30.219Z,11.83
2018-06-06T09:10:59.130Z,10.87
2018-06-06T09:13:27.350Z,10.00
2018-06-06T09:15:55.502Z,9.77
2018-06-06T09:18:23.726Z,9.07
2018-06-06T09:20:51.954Z,10.73
2018-06-06T09:23:20.149Z,10.20
2018-06-06T09:25:48.354Z,9.30
2018-06-06T09:28:16.528Z,10.10
2018-06-06T09:30:44.876Z,10.70
2018-06-06T09:33:13.046Z,9.90
2018-06-06T09:35:41.302Z,11.30
2018-06-06T09:38:09.490Z,10.33
2018-06-06T09:40:37.677Z,10.63
2018-06-06T09:43:05.848Z,11.17
2018-06-06T09:45:34.013Z,9.67
2018-06-06T09:48:02.199Z,10.60
2018-06-06T09:50:30.313Z,10.27
2018-06-06T09:52:58.483Z,9.50
2018-06-06T09:55:26.417Z,11.20
2018-06-06T09:57:54.566Z,10.53
2018-06-06T10:00:28.125Z,10.40
2018-06-06T10:02:56.319Z,10.40
2018-06-06T10:05:24.570Z,9.73
2018-06-06T10:07:52.751Z,10.93
2018-06-06T10:10:20.901Z,10.97
2018-06-06T10:12:49.073Z,9.70
2018-06-06T10:15:17.267Z,9.30
2018-06-06T10:17:45.444Z,9.77
2018-06-06T10:20:13.676Z,10.20
2018-06-06T10:22:41.810Z,10.30
2018-06-06T10:25:10.026Z,9.27
2018-06-06T10:27:38.262Z,9.87
2018-06-06T10:30:06.389Z,10.30
2018-06-06T10:32:34.573Z,10.00
2018-06-06T10:35:02.802Z,9.43
2018-06-06T10:37:30.987Z,9.30
2018-06-06T10:39:59.166Z,10.30
2018-06-06T10:42:27.302Z,10.20
2018-06-06T10:44:55.505Z,10.27
2018-06-06T10:47:23.694Z,10.80
2018-06-06T10:49:51.826Z,8.87
2018-06-06T10:52:20.036Z,8.50
2018-06-06T10:54:48.243Z,10.77
2018-06-06T10:57:16.414Z,10.73
2018-06-06T10:59:44.586Z,10.73
2018-06-06T11:02:12.801Z,10.03
2018-06-06T11:04:41.034Z,9.57
2018-06-06T11:07:09.203Z,9.70
2018-06-06T11:09:37.349Z,9.40
2018-06-06T11:12:05.602Z,9.50
2018-06-06T11:14:33.853Z,10.27
2018-06-06T11:17:02.090Z,9.70
2018-06-06T11:19:30.301Z,10.73
2018-06-06T11:21:58.498Z,11.00
2018-06-06T11:24:26.697Z,10.83
2018-06-06T11:26:54.906Z,9.77
2018-06-06T11:29:23.101Z,10.20
2018-06-06T11:31:51.349Z,9.80
2018-06-06T11:34:19.577Z,10.13
2018-06-06T11:36:47.787Z,12.20
2018-06-06T11:39:15.929Z,9.37
2018-06-06T11:41:44.122Z,9.27
2018-06-06T11:44:12.334Z,9.70
2018-06-06T11:46:40.526Z,10.30
2018-06-06T11:49:08.763Z,10.50
2018-06-06T11:51:36.958Z,9.40
2018-06-06T11:54:05.190Z,9.53
2018-06-06T11:56:33.365Z,9.90
2018-06-06T11:59:01.538Z,10.30
2018-06-06T12:01:29.677Z,8.43
2018-06-06T12:03:57.861Z,9.50
2018-06-06T12:06:26.058Z,9.50
2018-06-06T12:08:54.278Z,9.37
2018-06-06T12:11:22.481Z,8.70
2018-06-06T12:13:50.605Z,9.93
2018-06-06T12:16:18.617Z,8.53
2018-06-06T12:18:46.818Z,9.47
2018-06-06T12:21:15.042Z,10.47
2018-06-06T12:23:43.236Z,8.60
2018-06-06T12:26:11.430Z,9.50
2018-06-06T12:28:39.637Z,9.10
2018-06-06T12:31:07.794Z,8.40
2018-06-06T12:33:36.008Z,8.60
2018-06-06T12:36:04.758Z,9.27
2018-06-06T12:38:32.969Z,9.57
2018-06-06T12:41:01.158Z,9.27
2018-06-06T12:43:29.369Z,9.70
2018-06-06T12:45:57.600Z,8.53
2018-06-06T12:48:25.810Z,8.23
2018-06-06T12:50:53.985Z,8.60
2018-06-06T12:53:23.045Z,10.27
2018-06-06T12:55:51.602Z,9.40
2018-06-06T12:58:19.782Z,8.80
2018-06-06T13:00:47.978Z,9.20
2018-06-06T13:03:16.169Z,8.87
2018-06-06T13:05:44.325Z,9.00
2018-06-06T13:08:12.507Z,9.17
2018-06-06T13:10:40.661Z,7.77
2018-06-06T13:13:08.854Z,8.27
2018-06-06T13:15:37.023Z,7.50
2018-06-06T13:18:05.250Z,8.77
2018-06-06T13:20:33.458Z,7.83
2018-06-06T13:23:01.655Z,7.90
2018-06-06T13:25:29.910Z,9.27
2018-06-06T13:27:58.074Z,7.53
2018-06-06T13:30:26.230Z,8.20
2018-06-06T13:32:54.407Z,8.03
2018-06-06T13:35:22.575Z,8.23
2018-06-06T13:37:50.749Z,8.30
2018-06-06T13:40:18.935Z,8.17
2018-06-06T13:42:47.083Z,8.13
2018-06-06T13:45:15.261Z,8.07
2018-06-06T13:47:43.433Z,8.57
2018-06-06T13:50:11.601Z,7.57
2018-06-06T13:52:39.777Z,7.67
2018-06-06T13:55:07.930Z,8.20
2018-06-06T13:57:36.110Z,7.77
2018-06-06T14:00:04.520Z,7.23
2018-06-06T14:02:32.685Z,8.00
2018-06-06T14:05:00.902Z,7.57
2018-06-06T14:07:29.077Z,8.50
2018-06-06T14:09:57.250Z,7.80
2018-06-06T14:12:25.225Z,7.80
2018-06-06T14:14:53.478Z,8.77
2018-06-06T14:17:21.436Z,8.03
2018-06-06T14:19:49.638Z,7.90
2018-06-06T14:22:17.790Z,7.97
2018-06-06T14:24:45.945Z,7.77
2018-06-06T14:27:14.102Z,8.13
2018-06-06T14:29:42.306Z,7.10
2018-06-06T14:32:10.494Z,6.83
2018-06-06T14:34:38.669Z,7.13
2018-06-06T14:37:06.846Z,7.73
2018-06-06T14:39:35.018Z,6.67
2018-06-06T14:42:03.234Z,7.27
2018-06-06T14:44:31.433Z,7.13
2018-06-06T14:46:59.565Z,7.37
2018-06-06T14:49:27.699Z,6.80
2018-06-06T14:51:55.874Z,7.17
2018-06-06T14:54:24.105Z,6.90
2018-06-06T14:56:52.283Z,7.40
2018-06-06T14:59:20.456Z,6.93
2018-06-06T15:01:48.606Z,7.37
2018-06-06T15:04:16.829Z,8.10
2018-06-06T15:06:45.001Z,7.47
2018-06-06T15:09:13.206Z,6.67
2018-06-06T15:11:41.426Z,7.07
2018-06-06T15:14:09.662Z,7.43
2018-06-06T15:16:37.798Z,7.67
2018-06-06T15:19:06.016Z,6.67
2018-06-06T15:21:34.322Z,7.00
2018-06-06T15:24:02.474Z,6.77
2018-06-06T15:26:30.646Z,6.47
2018-06-06T15:28:58.802Z,7.13
2018-06-06T15:31:27.046Z,6.60
2018-06-06T15:33:55.211Z,7.03
2018-06-06T15:36:23.329Z,7.60
2018-06-06T15:38:51.606Z,7.13
2018-06-06T15:41:19.819Z,7.23
2018-06-06T15:43:47.998Z,6.93
2018-06-06T15:46:16.191Z,6.67
2018-06-06T15:48:44.310Z,6.10
2018-06-06T15:51:12.512Z,6.40
2018-06-06T15:53:40.724Z,6.20
2018-06-06T15:56:08.638Z,6.03
2018-06-06T15:58:36.846Z,6.67
2018-06-06T16:01:05.089Z,6.70
2018-06-06T16:03:33.277Z,7.00
2018-06-06T16:06:01.402Z,6.77
2018-06-06T16:08:29.654Z,6.37
2018-06-06T16:10:57.798Z,6.67
2018-06-06T16:13:25.998Z,6.10
2018-06-06T16:15:54.170Z,6.43
2018-06-06T16:18:22.401Z,6.90
2018-06-06T16:20:50.691Z,6.83
2018-06-06T16:23:18.870Z,5.90
2018-06-06T16:25:47.143Z,7.13
2018-06-06T16:28:18.314Z,6.50
2018-06-06T16:30:46.654Z,7.00
2018-06-06T16:33:15.386Z,7.13
2018-06-06T16:35:45.363Z,6.60
2018-06-06T16:38:15.048Z,8.00
2018-06-06T16:40:44.769Z,6.40
2018-06-06T16:43:14.725Z,7.60
2018-06-06T16:45:44.391Z,7.10
2018-06-06T16:48:14.035Z,6.87
2018-06-06T16:50:44.185Z,6.60
2018-06-06T16:53:14.265Z,7.50
2018-06-06T16:55:44.382Z,6.63
2018-06-06T16:58:14.486Z,6.60
2018-06-06T17:00:44.213Z,7.27
2018-06-06T17:03:13.725Z,7.27
2018-06-06T17:05:43.674Z,7.63
2018-06-06T17:08:13.348Z,6.67
2018-06-06T17:10:43.144Z,8.27
2018-06-06T17:13:13.279Z,6.60
2018-06-06T17:15:42.509Z,6.83
2018-06-06T17:18:12.413Z,7.00
2018-06-06T17:20:42.063Z,6.80
2018-06-06T17:23:11.678Z,6.40
2018-06-06T17:25:41.357Z,6.83
2018-06-06T17:28:10.993Z,6.77
2018-06-06T17:30:41.483Z,7.77
2018-06-06T17:33:11.686Z,6.57
2018-06-06T17:35:41.253Z,6.23
2018-06-06T17:38:10.755Z,6.07
2018-06-06T17:40:41.120Z,7.30
2018-06-06T17:43:10.796Z,6.70
2018-06-06T17:45:40.499Z,6.00
2018-06-06T17:48:10.648Z,5.80
2018-06-06T17:50:38.817Z,6.00
2018-06-06T17:53:06.994Z,6.37
2018-06-06T17:55:35.145Z,5.87
2018-06-06T17:58:03.328Z,5.37
2018-06-06T18:00:31.451Z,6.00
2018-06-06T18:02:59.627Z,7.03
2018-06-06T18:05:27.830Z,6.80
2018-06-06T18:07:55.985Z,6.27
2018-06-06T18:10:24.153Z,6.70
2018-06-06T18:12:52.333Z,6.07
2018-06-06T18:15:20.522Z,5.20
2018-06-06T18:17:48.674Z,5.77
2018-06-06T18:20:16.917Z,6.17
2018-06-06T18:22:45.042Z,5.50
2018-06-06T18:25:13.187Z,5.60
2018-06-06T18:27:41.319Z,5.67
2018-06-06T18:30:09.470Z,5.73
2018-06-06T18:32:37.721Z,13.40
2018-06-06T18:35:05.893Z,19.30
2018-06-06T18:37:34.079Z,15.50
2018-06-06T18:40:02.287Z,6.90
2018-06-06T18:42:30.582Z,5.50
2018-06-06T18:44:58.804Z,5.13
2018-06-06T18:47:27.132Z,4.40
2018-06-06T18:49:55.334Z,5.20
2018-06-06T18:52:23.530Z,5.20
2018-06-06T18:54:52.002Z,4.73
2018-06-06T18:57:21.491Z,4.47
2018-06-06T18:59:49.700Z,4.70
2018-06-06T19:02:17.870Z,4.90
2018-06-06T19:04:45.993Z,4.93
2018-06-06T19:07:14.198Z,5.00
2018-06-06T19:09:42.335Z,4.60
2018-06-06T19:12:10.538Z,4.67
2018-06-06T19:14:38.705Z,4.93
2018-06-06T19:17:07.022Z,4.13
2018-06-06T19:19:35.218Z,4.17
2018-06-06T19:22:03.377Z,4.50
2018-06-06T19:24:31.541Z,4.30
2018-06-06T19:26:59.776Z,4.63
2018-06-06T19:29:29.038Z,4.40
2018-06-06T19:31:57.289Z,5.20
2018-06-06T19:34:25.442Z,4.80
2018-06-06T19:36:53.818Z,4.90
2018-06-06T19:39:22.103Z,4.90
2018-06-06T19:41:50.259Z,4.67
2018-06-06T19:44:18.386Z,4.10
2018-06-06T19:46:46.569Z,4.90
2018-06-06T19:49:14.786Z,4.53
2018-06-06T19:51:42.962Z,4.63
2018-06-06T19:54:11.201Z,4.73
2018-06-06T19:56:39.424Z,4.33
2018-06-06T19:59:07.562Z,4.53
2018-06-06T20:01:35.781Z,5.20
2018-06-06T20:04:03.947Z,4.83
2018-06-06T20:06:32.198Z,5.00
2018-06-06T20:09:00.318Z,4.43
2018-06-06T20:11:29.359Z,4.10
2018-06-06T20:13:57.536Z,4.80
2018-06-06T20:16:25.731Z,5.30
2018-06-06T20:18:53.912Z,5.60
2018-06-06T20:21:22.109Z,4.80
2018-06-06T20:23:50.294Z,5.03
2018-06-06T20:26:18.457Z,4.63
2018-06-06T20:28:46.626Z,5.03
2018-06-06T20:31:14.805Z,5.50
2018-06-06T20:33:42.965Z,5.20
2018-06-06T20:36:11.125Z,5.93
2018-06-06T20:38:39.333Z,6.13
2018-06-06T20:41:07.611Z,5.47
2018-06-06T20:43:35.821Z,6.00
2018-06-06T20:46:04.007Z,6.07
2018-06-06T20:48:32.185Z,5.53
2018-06-06T20:51:00.338Z,5.70
2018-06-06T20:53:28.529Z,5.20
2018-06-06T20:55:56.669Z,5.40
2018-06-06T20:58:24.837Z,5.40
2018-06-06T21:00:53.043Z,6.50
2018-06-06T21:03:21.188Z,6.10
2018-06-06T21:05:49.354Z,5.80
2018-06-06T21:08:17.526Z,5.90
2018-06-06T21:10:45.728Z,6.13
2018-06-06T21:13:13.881Z,6.30
2018-06-06T21:15:42.079Z,7.23
2018-06-06T21:18:10.034Z,7.30
2018-06-06T21:20:38.245Z,6.83
2018-06-06T21:23:06.460Z,7.13
2018-06-06T21:25:34.615Z,5.80
2018-06-06T21:28:02.786Z,6.23
2018-06-06T21:30:31.002Z,7.03
2018-06-06T21:32:59.248Z,7.10
2018-06-06T21:35:27.682Z,5.97
2018-06-06T21:37:55.930Z,7.00
2018-06-06T21:40:24.105Z,6.83
2018-06-06T21:42:52.300Z,7.90
2018-06-06T21:45:20.494Z,6.80
2018-06-06T21:47:48.659Z,7.87
2018-06-06T21:50:16.596Z,7.30
2018-06-06T21:52:44.782Z,7.33
2018-06-06T21:55:13.002Z,7.70
2018-06-06T21:57:41.154Z,7.87
2018-06-06T22:00:09.474Z,6.93
2018-06-06T22:02:37.604Z,7.10
2018-06-06T22:05:05.818Z,7.00
2018-06-06T22:07:34.010Z,6.70
2018-06-06T22:10:02.171Z,7.87
2018-06-06T22:12:30.380Z,7.37
2018-06-06T22:14:58.580Z,7.63
2018-06-06T22:17:26.928Z,8.10
2018-06-06T22:19:55.101Z,8.30
2018-06-06T22:22:23.274Z,7.73
2018-06-06T22:24:51.515Z,7.80
2018-06-06T22:27:19.678Z,7.47
2018-06-06T22:29:47.861Z,8.00
2018-06-06T22:32:16.000Z,7.53
2018-06-06T22:34:44.185Z,7.67
2018-06-06T22:37:12.350Z,7.97
2018-06-06T22:39:40.555Z,13.83
2018-06-06T22:42:08.690Z,10.03
2018-06-06T22:44:36.901Z,10.13
2018-06-06T22:47:05.062Z,8.77
2018-06-06T22:49:33.266Z,9.77
2018-06-06T22:52:01.471Z,8.87
2018-06-06T22:54:29.678Z,7.87
2018-06-06T22:56:57.858Z,7.83
2018-06-06T22:59:26.067Z,7.00
2018-06-06T23:01:54.227Z,7.53
2018-06-06T23:04:22.411Z,7.90
2018-06-06T23:06:50.593Z,8.90
2018-06-06T23:09:18.757Z,7.10
2018-06-06T23:11:46.959Z,8.43
2018-06-06T23:14:15.129Z,7.33
2018-06-06T23:16:43.342Z,8.10
2018-06-06T23:19:11.518Z,8.10
2018-06-06T23:21:39.683Z,7.77
2018-06-06T23:24:07.862Z,8.10
2018-06-06T23:26:36.038Z,7.57
2018-06-06T23:29:04.250Z,8.93
2018-06-06T23:31:32.400Z,8.27
2018-06-06T23:34:00.534Z,7.63
2018-06-06T23:36:28.730Z,7.90
2018-06-06T23:38:56.921Z,8.00
2018-06-06T23:41:25.130Z,7.37
2018-06-06T23:43:53.302Z,7.30
2018-06-06T23:46:21.510Z,8.43
2018-06-06T23:48:49.652Z,8.30
2018-06-06T23:51:17.858Z,8.03
2018-06-06T23:53:46.061Z,8.40
2018-06-06T23:56:14.186Z,8.20
2018-06-06T23:58:42.365Z,8.23
